Time;durP1;ratioP1;P1;durP2;ratioP2;P2;SDS_P1;SDS_P2;PMS_P1;PMS_P2;Temp;Humidity;BMP_temperature;BMP_pressure;BME280_temperature;BME280_humidity;BME280_pressure;Samples;Min_cycle;Max_cycle;Signal;HPM_P1;HPM_P2
2023/05/30 00:02:06;;;;;;;;;;;12.10;99.90;;;;;;5075961;28;19909;-71
2023/05/30 00:04:32;;;;;;;;;;;12.10;99.90;;;;;;5076219;28;20261;-71
2023/05/30 00:06:57;;;;;;;;;;;12.10;99.90;;;;;;5075874;28;20356;-71
2023/05/30 00:09:23;;;;;;;;;;;12.10;99.90;;;;;;5076334;28;19919;-71
2023/05/30 00:11:49;;;;;;;;;;;12.10;99.90;;;;;;5058862;28;20366;-71
2023/05/30 00:14:20;;;;;;;;;;;12.10;99.90;;;;;;5055583;28;19909;-71
2023/05/30 00:16:46;;;;;;;;;;;12.00;99.90;;;;;;5037792;28;19916;-71
2023/05/30 00:19:11;;;;;;;;;;;12.00;99.90;;;;;;5060753;28;20011;-71
2023/05/30 00:21:37;;;;;;;;;;;12.00;99.90;;;;;;5076137;28;19991;-71
2023/05/30 00:24:04;;;;;;;;;;;11.90;99.90;;;;;;5075509;28;19909;-71
2023/05/30 00:26:30;;;;;;;;;;;11.90;99.90;;;;;;5075615;28;19908;-71
2023/05/30 00:28:56;;;;;;;;;;;11.90;99.90;;;;;;5075251;28;20414;-71
2023/05/30 00:31:21;;;;;;;;;;;11.80;99.90;;;;;;5075360;28;19909;-71
2023/05/30 00:33:47;;;;;;;;;;;11.80;99.90;;;;;;5075330;28;19920;-71
2023/05/30 00:36:13;;;;;;;;;;;11.80;99.90;;;;;;5075271;28;19915;-71
2023/05/30 00:38:39;;;;;;;;;;;11.70;99.90;;;;;;5075165;28;19909;-71
2023/05/30 00:41:05;;;;;;;;;;;11.70;99.90;;;;;;5075122;28;20367;-71
2023/05/30 00:43:30;;;;;;;;;;;11.60;99.90;;;;;;5075411;28;19995;-71
2023/05/30 00:45:56;;;;;;;;;;;11.60;99.90;;;;;;5074952;28;19909;-71
2023/05/30 00:48:22;;;;;;;;;;;11.50;99.90;;;;;;5075185;28;19919;-71
2023/05/30 00:50:48;;;;;;;;;;;11.50;99.90;;;;;;5074794;28;19920;-71
2023/05/30 00:53:14;;;;;;;;;;;11.50;99.90;;;;;;5056963;28;19920;-71
2023/05/30 00:55:40;;;;;;;;;;;11.40;99.90;;;;;;5074901;28;19904;-71
2023/05/30 00:58:06;;;;;;;;;;;11.20;99.90;;;;;;5074776;28;20356;-71
2023/05/30 01:00:37;;;;;;;;;;;11.10;99.90;;;;;;5074708;28;19915;-71
2023/05/30 01:03:02;;;;;;;;;;;11.00;99.90;;;;;;5074963;28;19904;-71
2023/05/30 01:05:28;;;;;;;;;;;11.00;99.90;;;;;;5074701;28;19904;-71
2023/05/30 01:07:54;;;;;;;;;;;11.00;99.90;;;;;;5074663;28;20348;-71
2023/05/30 01:10:20;;;;;;;;;;;11.00;99.90;;;;;;5074536;28;19958;-71
2023/05/30 01:13:04;;;;;;;;;;;11.00;99.90;;;;;;5074771;28;19909;-71
2023/05/30 01:15:32;;;;;;;;;;;11.00;99.90;;;;;;5074606;28;19905;-71
2023/05/30 01:18:01;;;;;;;;;;;11.00;99.90;;;;;;5074427;28;20000;-71
2023/05/30 01:20:30;;;;;;;;;;;11.00;99.90;;;;;;5074660;28;19927;-71
2023/05/30 01:23:08;;;;;;;;;;;11.00;99.90;;;;;;5074366;28;19991;-71
2023/05/30 01:25:49;;;;;;;;;;;10.90;99.90;;;;;;5074670;28;19947;-71
2023/05/30 01:28:21;;;;;;;;;;;10.80;99.90;;;;;;5074467;28;19905;-71
2023/05/30 01:30:48;;;;;;;;;;;10.80;99.90;;;;;;5074176;28;19908;-71
2023/05/30 01:33:13;;;;;;;;;;;10.80;99.90;;;;;;5074113;28;20459;-71
2023/05/30 01:35:45;;;;;;;;;;;10.80;99.90;;;;;;5074178;28;19947;-71
2023/05/30 01:38:11;;;;;;;;;;;10.80;99.90;;;;;;5074321;28;19908;-71
2023/05/30 01:40:37;;;;;;;;;;;10.80;99.90;;;;;;5066978;28;19954;-71
2023/05/30 01:43:23;;;;;;;;;;;10.70;99.90;;;;;;5054026;28;19909;-71
2023/05/30 01:46:05;;;;;;;;;;;10.70;99.90;;;;;;5039856;28;19959;-71
2023/05/30 01:48:30;;;;;;;;;;;10.50;99.90;;;;;;5036225;28;20003;-71
2023/05/30 01:50:58;;;;;;;;;;;10.40;99.90;;;;;;5053811;28;20003;-71
2023/05/30 01:53:30;;;;;;;;;;;10.40;99.90;;;;;;5053844;28;19913;-71
2023/05/30 01:55:57;;;;;;;;;;;10.40;99.90;;;;;;5053916;28;19911;-71
2023/05/30 01:58:23;;;;;;;;;;;10.30;99.90;;;;;;5053891;28;19996;-71
2023/05/30 02:00:50;;;;;;;;;;;10.40;99.90;;;;;;5053677;28;19911;-71
2023/05/30 02:03:15;;;;;;;;;;;10.30;99.90;;;;;;5054246;28;20344;-71
2023/05/30 02:05:41;;;;;;;;;;;10.30;99.90;;;;;;5054020;28;19909;-71
2023/05/30 02:08:06;;;;;;;;;;;10.30;99.90;;;;;;5053629;28;20361;-71
2023/05/30 02:10:32;;;;;;;;;;;10.20;99.90;;;;;;5054015;28;19909;-71
2023/05/30 02:12:57;;;;;;;;;;;10.20;99.90;;;;;;5053715;28;20289;-71
2023/05/30 02:15:23;;;;;;;;;;;10.20;99.90;;;;;;5052921;28;19912;-71
2023/05/30 02:17:49;;;;;;;;;;;10.20;99.90;;;;;;5053701;28;20008;-71
2023/05/30 02:20:14;;;;;;;;;;;10.20;99.90;;;;;;5053469;28;19917;-72
2023/05/30 02:22:40;;;;;;;;;;;10.10;99.90;;;;;;5053817;28;19944;-72
2023/05/30 02:25:06;;;;;;;;;;;10.10;99.90;;;;;;5053598;28;19909;-72
2023/05/30 02:27:31;;;;;;;;;;;10.00;99.90;;;;;;5053804;28;19904;-72
2023/05/30 02:29:57;;;;;;;;;;;10.00;99.90;;;;;;5053296;28;19904;-71
2023/05/30 02:32:22;;;;;;;;;;;9.90;99.90;;;;;;5053681;28;19908;-72
2023/05/30 02:34:48;;;;;;;;;;;9.90;99.90;;;;;;5053457;28;19944;-72
2023/05/30 02:37:13;;;;;;;;;;;9.90;99.90;;;;;;5053447;28;19913;-71
2023/05/30 02:39:39;;;;;;;;;;;9.90;99.90;;;;;;5053458;28;19916;-72
2023/05/30 02:42:05;;;;;;;;;;;9.80;99.90;;;;;;5053382;28;19916;-72
2023/05/30 02:44:31;;;;;;;;;;;9.80;99.90;;;;;;5053282;28;20361;-71
2023/05/30 02:46:56;;;;;;;;;;;9.80;99.90;;;;;;5053415;28;19912;-72
2023/05/30 02:49:22;;;;;;;;;;;9.80;99.90;;;;;;5053207;28;20291;-72
2023/05/30 02:51:48;;;;;;;;;;;9.70;99.90;;;;;;5053825;28;19916;-72
2023/05/30 02:54:13;;;;;;;;;;;9.80;99.90;;;;;;5035605;28;19916;-72
2023/05/30 02:56:39;;;;;;;;;;;9.80;99.90;;;;;;5053435;28;20364;-71
2023/05/30 02:59:05;;;;;;;;;;;9.70;99.90;;;;;;5053213;28;19909;-72
2023/05/30 03:01:30;;;;;;;;;;;9.70;99.90;;;;;;5053116;28;19963;-71
2023/05/30 03:03:56;;;;;;;;;;;9.70;99.90;;;;;;5053214;28;19959;-72
2023/05/30 03:06:21;;;;;;;;;;;9.70;99.90;;;;;;5035463;28;19915;-72
2023/05/30 03:08:57;;;;;;;;;;;9.70;99.90;;;;;;5053397;28;19959;-72
2023/05/30 03:11:23;;;;;;;;;;;9.70;99.90;;;;;;5052991;28;19962;-72
2023/05/30 03:13:50;;;;;;;;;;;9.80;99.90;;;;;;5053118;28;19913;-72
2023/05/30 03:16:16;;;;;;;;;;;9.70;99.90;;;;;;5052900;28;19948;-71
2023/05/30 03:18:41;;;;;;;;;;;9.70;99.90;;;;;;5053018;28;19939;-72
2023/05/30 03:21:07;;;;;;;;;;;9.60;99.90;;;;;;5053432;28;19908;-72
2023/05/30 03:23:33;;;;;;;;;;;9.70;99.90;;;;;;5053026;28;20388;-72
2023/05/30 03:25:58;;;;;;;;;;;9.60;99.90;;;;;;5053279;28;20007;-72
2023/05/30 03:28:24;;;;;;;;;;;9.60;99.90;;;;;;5038066;28;19916;-72
2023/05/30 03:30:50;;;;;;;;;;;9.60;99.90;;;;;;5056291;28;20001;-71
2023/05/30 03:33:16;;;;;;;;;;;9.60;99.90;;;;;;5056452;28;20391;-72
2023/05/30 03:35:42;;;;;;;;;;;9.60;99.90;;;;;;5038585;28;19955;-72
2023/05/30 03:38:08;;;;;;;;;;;9.60;99.90;;;;;;5056305;28;19909;-72
2023/05/30 03:40:33;;;;;;;;;;;9.60;99.90;;;;;;5056437;28;20276;-72
2023/05/30 03:42:59;;;;;;;;;;;9.60;99.90;;;;;;5056565;28;19916;-72
2023/05/30 03:45:25;;;;;;;;;;;9.50;99.90;;;;;;5056350;28;20007;-71
2023/05/30 03:47:50;;;;;;;;;;;9.50;99.90;;;;;;5056427;28;20422;-71
2023/05/30 03:50:16;;;;;;;;;;;9.40;99.90;;;;;;5038222;28;19948;-72
2023/05/30 03:52:41;;;;;;;;;;;9.40;99.90;;;;;;5056059;28;19910;-72
2023/05/30 03:55:07;;;;;;;;;;;9.40;99.90;;;;;;5056378;28;19935;-72
2023/05/30 03:57:33;;;;;;;;;;;9.50;99.90;;;;;;5056135;28;19955;-72
2023/05/30 03:59:58;;;;;;;;;;;9.50;99.90;;;;;;5055759;28;19951;-72
2023/05/30 04:02:24;;;;;;;;;;;9.50;99.90;;;;;;5056197;28;19916;-72
2023/05/30 04:04:49;;;;;;;;;;;9.50;99.90;;;;;;5055850;28;19915;-72
2023/05/30 04:07:15;;;;;;;;;;;9.50;99.90;;;;;;5055865;28;19915;-72
2023/05/30 04:09:41;;;;;;;;;;;9.60;99.90;;;;;;5055781;28;20000;-72
2023/05/30 04:12:06;;;;;;;;;;;9.60;99.90;;;;;;5055628;28;19913;-72
2023/05/30 04:14:32;;;;;;;;;;;9.60;99.90;;;;;;5055576;28;19909;-72
2023/05/30 04:16:57;;;;;;;;;;;9.60;99.90;;;;;;5055665;28;19909;-72
2023/05/30 04:19:23;;;;;;;;;;;9.60;99.90;;;;;;5055687;28;19912;-72
2023/05/30 04:21:48;;;;;;;;;;;9.60;99.90;;;;;;5055583;28;19908;-72
2023/05/30 04:24:15;;;;;;;;;;;9.60;99.90;;;;;;5055491;28;20262;-72
2023/05/30 04:26:41;;;;;;;;;;;9.60;99.90;;;;;;5055394;28;19909;-72
2023/05/30 04:29:08;;;;;;;;;;;9.60;99.90;;;;;;5055378;28;19908;-72
2023/05/30 04:31:33;;;;;;;;;;;9.60;99.90;;;;;;5038898;28;19913;-73
2023/05/30 04:33:59;;;;;;;;;;;9.60;99.90;;;;;;5055320;28;20423;-73
2023/05/30 04:36:27;;;;;;;;;;;9.60;99.90;;;;;;5055248;28;19916;-73
2023/05/30 04:38:52;;;;;;;;;;;9.60;99.90;;;;;;5054728;28;19934;-72
2023/05/30 04:41:24;;;;;;;;;;;9.70;99.90;;;;;;5055138;28;20429;-73
2023/05/30 04:43:57;;;;;;;;;;;9.70;99.90;;;;;;5055039;28;19927;-72
2023/05/30 04:46:23;;;;;;;;;;;9.80;99.90;;;;;;5053991;28;19939;-72
2023/05/30 04:48:53;;;;;;;;;;;9.80;99.90;;;;;;5054024;28;19909;-77
2023/05/30 04:51:24;;;;;;;;;;;9.80;99.90;;;;;;5054502;28;19904;-72
2023/05/30 04:53:50;;;;;;;;;;;9.90;99.90;;;;;;5053934;28;19936;-73
2023/05/30 04:56:16;;;;;;;;;;;9.90;99.90;;;;;;5054901;28;19904;-73
2023/05/30 04:58:45;;;;;;;;;;;9.90;99.90;;;;;;5053599;28;19944;-73
2023/05/30 05:01:10;;;;;;;;;;;10.00;99.90;;;;;;5054568;28;19904;-73
2023/05/30 05:03:37;;;;;;;;;;;10.00;99.90;;;;;;5054677;28;19909;-71
2023/05/30 05:06:04;;;;;;;;;;;10.10;99.90;;;;;;5055049;28;19904;-73
2023/05/30 05:08:29;;;;;;;;;;;10.10;99.90;;;;;;5054659;28;19991;-72
2023/05/30 05:10:55;;;;;;;;;;;10.10;99.90;;;;;;5054622;28;20375;-73
2023/05/30 05:13:21;;;;;;;;;;;10.10;99.90;;;;;;5054497;28;20276;-73
2023/05/30 05:15:46;;;;;;;;;;;10.20;99.90;;;;;;5054310;28;19974;-72
2023/05/30 05:18:12;;;;;;;;;;;10.20;99.90;;;;;;5054444;28;19908;-72
2023/05/30 05:20:38;;;;;;;;;;;10.30;99.90;;;;;;5054548;28;19905;-73
2023/05/30 05:23:03;;;;;;;;;;;10.30;99.90;;;;;;5055205;28;19951;-73
2023/05/30 05:25:29;;;;;;;;;;;10.40;99.90;;;;;;5054511;28;20000;-73
2023/05/30 05:27:54;;;;;;;;;;;10.40;99.90;;;;;;5054477;28;20007;-72
2023/05/30 05:30:20;;;;;;;;;;;10.40;99.90;;;;;;5036080;28;19908;-73
2023/05/30 05:32:45;;;;;;;;;;;10.50;99.90;;;;;;5054194;28;19958;-73
2023/05/30 05:35:11;;;;;;;;;;;10.60;99.90;;;;;;5054219;28;19974;-73
2023/05/30 05:37:37;;;;;;;;;;;10.70;99.90;;;;;;5054254;28;19916;-72
2023/05/30 05:40:07;;;;;;;;;;;10.70;99.90;;;;;;5053995;28;19928;-72
2023/05/30 05:42:33;;;;;;;;;;;10.80;99.90;;;;;;5054124;28;19904;-73
2023/05/30 05:44:59;;;;;;;;;;;10.80;99.90;;;;;;5035762;28;20266;-72
2023/05/30 05:47:24;;;;;;;;;;;10.90;99.90;;;;;;5054611;28;19927;-73
2023/05/30 05:49:51;;;;;;;;;;;11.00;99.90;;;;;;5053211;28;19917;-73
2023/05/30 05:52:17;;;;;;;;;;;11.00;99.90;;;;;;5054157;28;20011;-73
2023/05/30 05:54:42;;;;;;;;;;;11.10;99.90;;;;;;5053546;28;19951;-72
2023/05/30 05:57:08;;;;;;;;;;;11.20;99.90;;;;;;5033938;28;20023;-72
2023/05/30 05:59:34;;;;;;;;;;;11.30;99.90;;;;;;5051719;28;19908;-72
2023/05/30 06:01:59;;;;;;;;;;;11.40;99.90;;;;;;5051807;28;19978;-72
2023/05/30 06:04:25;;;;;;;;;;;11.40;99.90;;;;;;5051997;28;20384;-72
2023/05/30 06:06:51;;;;;;;;;;;11.40;99.90;;;;;;5053022;28;20415;-73
2023/05/30 06:09:16;;;;;;;;;;;11.50;99.90;;;;;;5053696;28;19944;-73
2023/05/30 06:11:42;;;;;;;;;;;11.60;99.90;;;;;;5053584;28;19920;-73
2023/05/30 06:14:08;;;;;;;;;;;11.60;99.90;;;;;;5035773;28;19955;-73
2023/05/30 06:16:33;;;;;;;;;;;11.70;99.90;;;;;;5053452;28;19962;-73
2023/05/30 06:18:59;;;;;;;;;;;11.80;99.90;;;;;;5053835;28;19947;-73
2023/05/30 06:21:24;;;;;;;;;;;11.90;99.90;;;;;;5035851;28;19947;-73
2023/05/30 06:23:50;;;;;;;;;;;12.00;99.90;;;;;;5053584;28;19951;-73
2023/05/30 06:26:15;;;;;;;;;;;12.10;99.90;;;;;;5053556;28;19916;-73
2023/05/30 06:28:41;;;;;;;;;;;12.20;99.90;;;;;;5053497;28;19915;-72
2023/05/30 06:31:06;;;;;;;;;;;12.30;99.90;;;;;;5053347;28;19996;-73
2023/05/30 06:33:32;;;;;;;;;;;12.40;99.90;;;;;;5053708;28;20361;-73
2023/05/30 06:35:57;;;;;;;;;;;12.50;99.90;;;;;;5053499;28;19962;-73
2023/05/30 06:38:25;;;;;;;;;;;12.70;99.90;;;;;;5053477;28;19931;-73
2023/05/30 06:40:50;;;;;;;;;;;12.80;99.90;;;;;;5053398;28;20357;-73
2023/05/30 06:43:16;;;;;;;;;;;12.90;99.90;;;;;;5053716;28;19959;-73
2023/05/30 06:45:42;;;;;;;;;;;13.00;99.90;;;;;;5053174;28;19909;-73
2023/05/30 06:48:08;;;;;;;;;;;13.10;99.90;;;;;;5053299;28;19958;-72
2023/05/30 06:50:34;;;;;;;;;;;13.20;99.90;;;;;;5035465;28;20292;-73
2023/05/30 06:53:00;;;;;;;;;;;13.40;99.90;;;;;;5053263;28;19944;-73
2023/05/30 06:55:25;;;;;;;;;;;13.50;99.90;;;;;;5053520;28;19909;-73
2023/05/30 06:57:54;;;;;;;;;;;13.60;99.90;;;;;;5053769;28;19908;-73
2023/05/30 07:00:20;;;;;;;;;;;13.70;99.90;;;;;;5052952;28;19905;-72
2023/05/30 07:02:46;;;;;;;;;;;13.90;99.90;;;;;;5057183;28;19909;-73
2023/05/30 07:05:12;;;;;;;;;;;14.10;99.90;;;;;;5057054;28;19958;-73
2023/05/30 07:07:39;;;;;;;;;;;14.20;99.90;;;;;;5056992;28;20270;-73
2023/05/30 07:10:06;;;;;;;;;;;14.30;99.90;;;;;;5056866;28;19998;-72
2023/05/30 07:12:31;;;;;;;;;;;14.40;99.90;;;;;;5056850;28;19908;-73
2023/05/30 07:14:57;;;;;;;;;;;14.60;99.90;;;;;;5038726;28;19971;-72
2023/05/30 07:17:22;;;;;;;;;;;14.60;99.90;;;;;;5057079;28;20004;-73
2023/05/30 07:19:48;;;;;;;;;;;14.70;99.90;;;;;;5056983;28;19909;-73
2023/05/30 07:22:13;;;;;;;;;;;14.80;99.90;;;;;;5056891;28;19912;-73
2023/05/30 07:24:39;;;;;;;;;;;14.90;99.90;;;;;;5056681;28;19948;-73
2023/05/30 07:27:05;;;;;;;;;;;15.00;99.90;;;;;;5056629;28;20432;-73
2023/05/30 07:29:30;;;;;;;;;;;15.10;99.90;;;;;;5056521;28;20276;-73
2023/05/30 07:31:56;;;;;;;;;;;15.10;99.90;;;;;;5056261;28;19913;-72
2023/05/30 07:34:21;;;;;;;;;;;15.20;99.90;;;;;;5056534;28;19916;-73
2023/05/30 07:36:47;;;;;;;;;;;15.30;99.90;;;;;;5056449;28;19909;-73
2023/05/30 07:39:12;;;;;;;;;;;15.30;99.90;;;;;;5038564;28;19909;-72
2023/05/30 07:41:38;;;;;;;;;;;15.40;99.90;;;;;;5056307;28;19916;-72
2023/05/30 07:44:03;;;;;;;;;;;15.50;99.90;;;;;;5056303;28;20372;-73
2023/05/30 07:46:29;;;;;;;;;;;15.60;99.90;;;;;;5056008;28;20323;-73
2023/05/30 07:48:55;;;;;;;;;;;15.70;99.90;;;;;;5056321;28;19913;-73
2023/05/30 07:51:22;;;;;;;;;;;15.70;99.90;;;;;;5056400;28;19905;-73
2023/05/30 07:53:47;;;;;;;;;;;15.80;99.90;;;;;;5056172;28;19905;-73
2023/05/30 07:56:13;;;;;;;;;;;15.80;99.90;;;;;;5056104;28;19999;-73
2023/05/30 07:58:39;;;;;;;;;;;15.80;99.90;;;;;;5055906;28;19905;-72
2023/05/30 08:01:04;;;;;;;;;;;15.90;99.90;;;;;;5055788;28;20416;-72
2023/05/30 08:03:30;;;;;;;;;;;16.00;99.90;;;;;;5056245;28;19904;-73
2023/05/30 08:05:56;;;;;;;;;;;16.10;99.90;;;;;;5055896;28;19996;-72
2023/05/30 08:08:21;;;;;;;;;;;16.30;99.90;;;;;;5056057;28;19916;-72
2023/05/30 08:10:47;;;;;;;;;;;16.50;99.90;;;;;;5056073;28;20328;-72
2023/05/30 08:13:13;;;;;;;;;;;16.70;99.90;;;;;;5055129;28;20403;-72
2023/05/30 08:15:39;;;;;;;;;;;16.90;99.90;;;;;;5055556;28;19908;-72
2023/05/30 08:18:05;;;;;;;;;;;17.00;99.90;;;;;;5055925;28;19999;-72
2023/05/30 08:20:30;;;;;;;;;;;17.20;98.90;;;;;;5055704;28;20368;-73
2023/05/30 08:22:56;;;;;;;;;;;17.30;99.20;;;;;;5055604;28;20063;-72
2023/05/30 08:25:23;;;;;;;;;;;17.40;98.40;;;;;;5055550;28;19909;-73
2023/05/30 08:27:53;;;;;;;;;;;17.50;96.40;;;;;;5055547;28;19909;-72
2023/05/30 08:30:19;;;;;;;;;;;17.60;96.60;;;;;;5055159;28;20018;-73
2023/05/30 08:32:44;;;;;;;;;;;17.70;96.80;;;;;;5055634;28;20360;-72
2023/05/30 08:35:10;;;;;;;;;;;17.90;95.30;;;;;;5055387;28;19908;-72
2023/05/30 08:37:35;;;;;;;;;;;18.00;95.30;;;;;;5055439;28;19999;-72
2023/05/30 08:40:01;;;;;;;;;;;18.20;95.70;;;;;;5055169;28;20414;-72
2023/05/30 08:42:26;;;;;;;;;;;18.30;94.30;;;;;;5055253;28;19916;-72
2023/05/30 08:44:52;;;;;;;;;;;18.40;94.30;;;;;;5055189;28;19916;-72
2023/05/30 08:47:20;;;;;;;;;;;18.50;95.40;;;;;;5054931;28;19909;-71
2023/05/30 08:49:46;;;;;;;;;;;18.70;93.20;;;;;;5054924;28;19942;-72
2023/05/30 08:52:15;;;;;;;;;;;18.80;92.40;;;;;;5037222;28;20269;-72
2023/05/30 08:54:47;;;;;;;;;;;18.90;91.70;;;;;;5055244;28;19905;-72
2023/05/30 08:57:22;;;;;;;;;;;18.90;91.20;;;;;;5068214;28;19952;-72
2023/05/30 08:59:49;;;;;;;;;;;19.00;91.30;;;;;;5074832;28;19908;-72
2023/05/30 09:02:15;;;;;;;;;;;19.20;92.40;;;;;;5074568;28;19951;-72
2023/05/30 09:04:41;;;;;;;;;;;19.30;90.50;;;;;;5056807;28;19912;-72
2023/05/30 09:07:07;;;;;;;;;;;19.50;89.80;;;;;;5074621;28;19905;-72
2023/05/30 09:09:33;;;;;;;;;;;19.70;90.40;;;;;;5069719;28;19912;-72
2023/05/30 09:11:58;;;;;;;;;;;19.80;90.30;;;;;;5055716;28;19994;-71
2023/05/30 09:14:24;;;;;;;;;;;20.00;90.00;;;;;;5054247;28;20265;-72
2023/05/30 09:16:49;;;;;;;;;;;20.20;86.40;;;;;;5054300;28;19915;-71
2023/05/30 09:19:15;;;;;;;;;;;20.30;89.60;;;;;;5053931;28;19912;-71
2023/05/30 09:21:41;;;;;;;;;;;20.50;84.10;;;;;;5053792;28;19959;-72
2023/05/30 09:24:06;;;;;;;;;;;20.60;82.60;;;;;;5054338;28;19909;-72
2023/05/30 09:26:32;;;;;;;;;;;20.80;83.40;;;;;;5054388;28;20295;-71
2023/05/30 09:29:07;;;;;;;;;;;20.90;80.60;;;;;;5054262;28;19908;-71
2023/05/30 09:31:34;;;;;;;;;;;21.00;81.00;;;;;;5054301;28;19955;-71
2023/05/30 09:34:01;;;;;;;;;;;21.20;79.50;;;;;;5054235;28;19905;-71
2023/05/30 09:36:27;;;;;;;;;;;21.30;80.60;;;;;;5054496;28;19999;-72
2023/05/30 09:38:56;;;;;;;;;;;21.40;78.90;;;;;;5054116;28;19947;-71
2023/05/30 09:41:23;;;;;;;;;;;21.50;80.20;;;;;;5054158;28;19905;-71
2023/05/30 09:43:53;;;;;;;;;;;21.60;77.60;;;;;;5054109;28;19909;-71
2023/05/30 09:46:21;;;;;;;;;;;21.70;79.70;;;;;;5036688;28;19909;-71
2023/05/30 09:48:47;;;;;;;;;;;21.80;77.90;;;;;;5053767;28;19952;-72
2023/05/30 09:51:14;;;;;;;;;;;21.90;75.50;;;;;;5054432;28;19909;-72
2023/05/30 09:53:53;;;;;;;;;;;22.10;77.40;;;;;;5054129;28;19967;-72
2023/05/30 09:56:19;;;;;;;;;;;22.10;73.00;;;;;;5054506;28;19970;-72
2023/05/30 09:58:45;;;;;;;;;;;22.10;70.00;;;;;;5053783;28;20356;-72
2023/05/30 10:01:14;;;;;;;;;;;22.20;69.80;;;;;;5053666;28;19913;-71
2023/05/30 10:03:41;;;;;;;;;;;22.30;68.20;;;;;;5053826;28;19958;-72
2023/05/30 10:06:11;;;;;;;;;;;22.30;69.30;;;;;;5053825;28;19905;-72
2023/05/30 10:08:37;;;;;;;;;;;22.30;68.20;;;;;;5053888;28;19908;-71
2023/05/30 10:11:03;;;;;;;;;;;22.40;65.20;;;;;;5035796;28;19908;-71
2023/05/30 10:13:28;;;;;;;;;;;22.40;67.70;;;;;;5052241;28;19920;-70
2023/05/30 10:15:54;;;;;;;;;;;22.40;63.60;;;;;;5051644;28;19924;-70
2023/05/30 10:18:21;;;;;;;;;;;22.40;67.20;;;;;;5052621;28;19913;-71
2023/05/30 10:20:47;;;;;;;;;;;22.60;68.80;;;;;;5053568;28;20364;-70
2023/05/30 10:23:13;;;;;;;;;;;22.80;69.10;;;;;;5034797;28;19916;-71
2023/05/30 10:25:44;;;;;;;;;;;23.00;65.90;;;;;;5053051;28;19904;-72
2023/05/30 10:28:15;;;;;;;;;;;23.00;64.40;;;;;;5053828;28;19905;-70
2023/05/30 10:30:41;;;;;;;;;;;23.00;62.00;;;;;;5054349;28;19960;-71
2023/05/30 10:33:07;;;;;;;;;;;23.00;61.20;;;;;;5053743;28;20008;-70
2023/05/30 10:35:34;;;;;;;;;;;23.00;63.40;;;;;;5053966;28;20378;-70
2023/05/30 10:38:00;;;;;;;;;;;23.00;63.40;;;;;;5057581;28;19909;-71
2023/05/30 10:40:35;;;;;;;;;;;23.10;63.00;;;;;;5057436;28;19934;-71
2023/05/30 10:43:19;;;;;;;;;;;23.20;60.80;;;;;;5058227;28;19905;-71
2023/05/30 10:45:54;;;;;;;;;;;23.30;61.90;;;;;;5058142;28;19913;-70
2023/05/30 10:48:22;;;;;;;;;;;23.40;63.80;;;;;;5057947;28;19905;-70
2023/05/30 10:50:50;;;;;;;;;;;23.40;63.40;;;;;;5057401;28;19917;-70
2023/05/30 10:53:19;;;;;;;;;;;23.40;63.90;;;;;;5057208;28;19958;-70
2023/05/30 10:55:46;;;;;;;;;;;23.30;64.20;;;;;;5057234;28;20339;-70
2023/05/30 10:58:30;;;;;;;;;;;23.50;63.20;;;;;;5057172;28;19962;-70
2023/05/30 11:01:16;;;;;;;;;;;23.60;61.70;;;;;;5056905;28;19947;-70
2023/05/30 11:03:44;;;;;;;;;;;23.70;62.50;;;;;;5056967;28;19912;-70
2023/05/30 11:06:10;;;;;;;;;;;23.80;60.00;;;;;;5057068;28;19904;-70
2023/05/30 11:08:38;;;;;;;;;;;23.90;64.10;;;;;;5057168;28;19950;-70
2023/05/30 11:11:15;;;;;;;;;;;23.90;63.00;;;;;;5056900;28;20377;-70
2023/05/30 11:13:43;;;;;;;;;;;24.00;63.70;;;;;;5057109;28;20253;-70
2023/05/30 11:16:24;;;;;;;;;;;24.10;61.60;;;;;;5056892;28;19955;-70
2023/05/30 11:18:55;;;;;;;;;;;24.00;61.70;;;;;;5057151;28;19927;-70
2023/05/30 11:21:39;;;;;;;;;;;24.00;66.10;;;;;;5056773;28;19909;-70
2023/05/30 11:24:07;;;;;;;;;;;24.10;60.30;;;;;;5056711;28;19917;-70
2023/05/30 11:26:51;;;;;;;;;;;24.30;64.80;;;;;;5057276;28;19995;-70
2023/05/30 11:29:33;;;;;;;;;;;24.30;61.40;;;;;;5056573;28;19944;-70
2023/05/30 11:31:58;;;;;;;;;;;24.30;60.30;;;;;;5056247;28;19912;-70
2023/05/30 11:34:24;;;;;;;;;;;24.00;61.40;;;;;;5057100;28;20273;-70
2023/05/30 11:36:50;;;;;;;;;;;23.90;61.70;;;;;;5056444;28;20361;-70
2023/05/30 11:39:18;;;;;;;;;;;23.70;60.00;;;;;;5056494;28;20376;-70
2023/05/30 11:41:44;;;;;;;;;;;23.40;61.20;;;;;;5056333;28;19944;-70
2023/05/30 11:44:09;;;;;;;;;;;23.20;62.10;;;;;;5055382;28;19920;-70
2023/05/30 11:46:35;;;;;;;;;;;23.10;63.20;;;;;;5055155;28;20027;-70
2023/05/30 11:49:04;;;;;;;;;;;23.00;63.10;;;;;;5055165;28;19963;-70
2023/05/30 11:51:31;;;;;;;;;;;23.10;63.90;;;;;;5055713;28;19999;-70
2023/05/30 11:54:00;;;;;;;;;;;23.40;65.80;;;;;;5056145;28;20315;-70
2023/05/30 11:56:29;;;;;;;;;;;23.60;65.40;;;;;;5056950;28;20050;-70
2023/05/30 11:58:55;;;;;;;;;;;23.70;64.80;;;;;;5067336;28;19920;-69
2023/05/30 12:01:21;;;;;;;;;;;23.80;64.10;;;;;;5056868;28;19908;-70
2023/05/30 12:03:47;;;;;;;;;;;23.80;62.70;;;;;;5064476;28;19991;-70
2023/05/30 12:06:13;;;;;;;;;;;23.60;63.60;;;;;;5059557;28;19997;-71
2023/05/30 12:08:42;;;;;;;;;;;23.70;61.80;;;;;;5056017;28;19944;-70
2023/05/30 12:11:11;;;;;;;;;;;23.70;62.70;;;;;;5055783;28;19905;-70
2023/05/30 12:13:37;;;;;;;;;;;23.50;63.70;;;;;;5055974;28;20368;-70
2023/05/30 12:16:02;;;;;;;;;;;23.40;63.40;;;;;;5061039;28;19919;-70
2023/05/30 12:18:28;;;;;;;;;;;23.30;64.70;;;;;;5071597;28;19929;-70
2023/05/30 12:20:53;;;;;;;;;;;23.30;62.20;;;;;;5061936;28;20307;-70
2023/05/30 12:23:25;;;;;;;;;;;23.40;65.00;;;;;;5081459;28;19948;-71
2023/05/30 12:25:54;;;;;;;;;;;23.60;63.00;;;;;;5058785;28;20349;-70
2023/05/30 12:28:23;;;;;;;;;;;23.80;62.20;;;;;;5055376;28;19955;-70
2023/05/30 12:30:51;;;;;;;;;;;23.90;61.70;;;;;;5037321;28;19909;-70
2023/05/30 12:33:18;;;;;;;;;;;24.00;60.90;;;;;;5055576;28;19912;-70
2023/05/30 12:35:44;;;;;;;;;;;24.00;59.50;;;;;;5055462;28;19950;-70
2023/05/30 12:38:17;;;;;;;;;;;24.20;60.00;;;;;;5055268;28;19905;-69
2023/05/30 12:40:47;;;;;;;;;;;24.40;61.00;;;;;;5055213;28;20376;-69
2023/05/30 12:43:13;;;;;;;;;;;24.50;58.40;;;;;;5037348;28;20011;-70
2023/05/30 12:45:39;;;;;;;;;;;24.60;57.30;;;;;;5063805;28;19912;-70
2023/05/30 12:48:04;;;;;;;;;;;24.80;58.60;;;;;;5074781;28;19919;-70
2023/05/30 12:50:30;;;;;;;;;;;25.00;59.70;;;;;;5057127;28;20292;-70
2023/05/30 12:52:55;;;;;;;;;;;25.00;57.20;;;;;;5075208;28;19908;-70
2023/05/30 12:55:21;;;;;;;;;;;24.90;55.60;;;;;;5074638;28;19908;-70
2023/05/30 12:57:46;;;;;;;;;;;24.80;57.60;;;;;;5074928;28;20357;-70
2023/05/30 13:00:12;;;;;;;;;;;24.70;56.40;;;;;;5074540;28;20432;-70
2023/05/30 13:02:38;;;;;;;;;;;24.90;58.60;;;;;;5074608;28;20399;-70
2023/05/30 13:05:04;;;;;;;;;;;25.10;57.90;;;;;;5074797;28;20315;-70
2023/05/30 13:07:29;;;;;;;;;;;25.10;56.10;;;;;;5074714;28;19943;-70
2023/05/30 13:09:55;;;;;;;;;;;24.90;55.10;;;;;;5073206;28;19916;-70
2023/05/30 13:12:20;;;;;;;;;;;24.80;57.60;;;;;;5054599;28;19967;-70
2023/05/30 13:14:46;;;;;;;;;;;25.10;54.70;;;;;;5054617;28;19955;-70
2023/05/30 13:17:12;;;;;;;;;;;25.30;56.40;;;;;;5054467;28;19905;-70
2023/05/30 13:19:37;;;;;;;;;;;25.50;55.90;;;;;;5054977;28;19943;-70
2023/05/30 13:22:04;;;;;;;;;;;25.50;55.90;;;;;;5054496;28;19904;-70
2023/05/30 13:24:30;;;;;;;;;;;25.40;55.10;;;;;;5054769;28;20361;-70
2023/05/30 13:26:56;;;;;;;;;;;25.50;56.00;;;;;;5054352;28;19944;-70
2023/05/30 13:29:21;;;;;;;;;;;25.60;56.40;;;;;;5054451;28;19909;-70
2023/05/30 13:31:47;;;;;;;;;;;25.30;55.20;;;;;;5036166;28;19967;-70
2023/05/30 13:34:12;;;;;;;;;;;25.40;55.40;;;;;;5054560;28;19904;-70
2023/05/30 13:36:38;;;;;;;;;;;25.50;56.10;;;;;;5054267;28;19908;-70
2023/05/30 13:39:04;;;;;;;;;;;25.50;54.90;;;;;;5054581;28;19909;-70
2023/05/30 13:41:30;;;;;;;;;;;25.40;54.60;;;;;;5054121;28;19912;-70
2023/05/30 13:43:57;;;;;;;;;;;25.20;54.80;;;;;;5054122;28;19994;-69
2023/05/30 13:46:22;;;;;;;;;;;25.10;53.80;;;;;;5053797;28;19916;-69
2023/05/30 13:48:48;;;;;;;;;;;25.10;52.90;;;;;;5054375;28;20329;-69
2023/05/30 13:51:14;;;;;;;;;;;24.90;53.30;;;;;;5054061;28;19979;-69
2023/05/30 13:53:40;;;;;;;;;;;24.80;55.60;;;;;;5053871;28;19913;-69
2023/05/30 13:56:07;;;;;;;;;;;24.80;55.80;;;;;;5053954;28;20249;-69
2023/05/30 13:58:32;;;;;;;;;;;24.80;55.10;;;;;;5053855;28;20422;-69
2023/05/30 14:00:58;;;;;;;;;;;24.90;53.20;;;;;;5054184;28;19909;-69
2023/05/30 14:03:23;;;;;;;;;;;25.00;55.40;;;;;;5035767;28;19955;-69
2023/05/30 14:05:49;;;;;;;;;;;25.10;56.30;;;;;;5053767;28;20350;-69
2023/05/30 14:08:15;;;;;;;;;;;25.20;54.70;;;;;;5053682;28;19920;-69
2023/05/30 14:10:41;;;;;;;;;;;25.30;53.90;;;;;;5053052;28;19962;-69
2023/05/30 14:13:06;;;;;;;;;;;25.20;56.80;;;;;;5035817;28;19963;-69
2023/05/30 14:15:32;;;;;;;;;;;25.20;54.50;;;;;;5053708;28;19909;-69
2023/05/30 14:17:58;;;;;;;;;;;24.90;54.00;;;;;;5053580;28;19909;-69